createdAt,value
2019-01-02T00:01:51.644Z,41.96
2019-01-02T00:04:19.396Z,41.85
2019-01-02T00:06:47.409Z,41.19
2019-01-02T00:09:15.119Z,41.08
2019-01-02T00:11:42.351Z,41.71
2019-01-02T00:14:09.337Z,41.85
2019-01-02T00:16:37.664Z,42.10
2019-01-02T00:19:04.615Z,42.44
2019-01-02T00:21:31.949Z,42.13
2019-01-02T00:23:59.176Z,41.73
2019-01-02T00:26:26.793Z,42.04
2019-01-02T00:28:54.072Z,42.13
2019-01-02T00:31:21.422Z,42.93
2019-01-02T00:33:48.417Z,42.97
2019-01-02T00:36:15.717Z,43.79
2019-01-02T00:38:42.697Z,43.38
2019-01-02T00:41:10.526Z,42.87
2019-01-02T00:43:37.776Z,43.76
2019-01-02T00:46:05.017Z,44.05
2019-01-02T00:48:32.239Z,44.07
2019-01-02T00:50:59.777Z,45.08
2019-01-02T00:53:27.062Z,45.29
2019-01-02T00:55:54.576Z,45.59
2019-01-02T00:58:21.479Z,45.43
2019-01-02T01:00:48.722Z,45.25
2019-01-02T01:03:15.708Z,45.19
2019-01-02T01:05:42.948Z,45.17
2019-01-02T01:08:09.944Z,44.75
2019-01-02T01:10:37.105Z,45.23
2019-01-02T01:13:04.337Z,45.88
2019-01-02T01:15:31.280Z,46.10
2019-01-02T01:17:58.411Z,46.00
2019-01-02T01:20:25.763Z,46.27
2019-01-02T01:22:53.122Z,47.12
2019-01-02T01:25:20.904Z,47.25
2019-01-02T01:27:48.109Z,46.63
2019-01-02T01:30:15.751Z,46.24
2019-01-02T01:32:42.962Z,46.27
2019-01-02T01:35:10.877Z,45.72
2019-01-02T01:37:38.614Z,45.81
2019-01-02T01:40:05.585Z,46.36
2019-01-02T01:42:32.504Z,45.63
2019-01-02T01:44:59.824Z,46.07
2019-01-02T01:47:26.753Z,45.60
2019-01-02T01:49:53.675Z,45.37
2019-01-02T01:52:20.655Z,45.06
2019-01-02T01:54:48.033Z,45.66
2019-01-02T01:57:14.967Z,45.48
2019-01-02T01:59:42.178Z,45.29
2019-01-02T02:02:09.154Z,44.81
2019-01-02T02:04:36.137Z,44.73
2019-01-02T02:07:03.614Z,44.83
2019-01-02T02:09:30.905Z,44.86
2019-01-02T02:11:58.120Z,44.59
2019-01-02T02:14:25.110Z,44.34
2019-01-02T02:16:52.060Z,44.45
2019-01-02T02:19:19.336Z,45.00
2019-01-02T02:21:46.296Z,44.72
2019-01-02T02:24:13.283Z,44.52
2019-01-02T02:26:40.221Z,43.72
2019-01-02T02:29:07.135Z,44.15
2019-01-02T02:31:34.667Z,43.94
2019-01-02T02:34:01.924Z,44.47
2019-01-02T02:36:29.321Z,45.06
2019-01-02T02:38:56.569Z,44.64
2019-01-02T02:41:23.994Z,44.24
2019-01-02T02:43:51.353Z,44.37
2019-01-02T02:46:18.325Z,44.83
2019-01-02T02:48:45.269Z,44.94
2019-01-02T02:51:12.763Z,45.00
2019-01-02T02:53:40.451Z,44.98
2019-01-02T02:56:07.808Z,44.67
2019-01-02T02:58:35.441Z,44.61
2019-01-02T03:01:02.977Z,44.21
2019-01-02T03:03:30.375Z,44.88
2019-01-02T03:05:57.621Z,44.58
2019-01-02T03:08:24.841Z,44.45
2019-01-02T03:10:52.751Z,45.13
2019-01-02T03:13:20.112Z,45.03
2019-01-02T03:15:47.649Z,45.21
2019-01-02T03:18:15.173Z,45.44
2019-01-02T03:20:42.061Z,45.25
2019-01-02T03:23:09.026Z,45.15
2019-01-02T03:25:36.424Z,45.70
2019-01-02T03:28:03.684Z,45.27
2019-01-02T03:30:30.951Z,45.11
2019-01-02T03:32:58.109Z,45.22
2019-01-02T03:35:25.292Z,45.10
2019-01-02T03:37:52.248Z,44.77
2019-01-02T03:40:19.153Z,44.97
2019-01-02T03:42:46.376Z,45.08
2019-01-02T03:45:13.521Z,45.08
2019-01-02T03:47:40.684Z,45.42
2019-01-02T03:50:07.695Z,45.13
2019-01-02T03:52:34.641Z,45.58
2019-01-02T03:55:01.502Z,44.91
2019-01-02T03:57:28.395Z,45.35
2019-01-02T03:59:55.519Z,44.94
2019-01-02T04:02:23.287Z,45.07
2019-01-02T04:04:50.256Z,44.85
2019-01-02T04:07:17.482Z,45.48
2019-01-02T04:09:44.619Z,45.44
2019-01-02T04:12:11.793Z,45.18
2019-01-02T04:14:38.760Z,45.27
2019-01-02T04:17:06.002Z,45.63
2019-01-02T04:19:33.234Z,46.02
2019-01-02T04:22:00.250Z,45.46
2019-01-02T04:24:27.202Z,45.49
2019-01-02T04:26:54.190Z,47.11
2019-01-02T04:29:21.165Z,46.45
2019-01-02T04:31:48.129Z,45.72
2019-01-02T04:34:15.089Z,46.08
2019-01-02T04:36:42.319Z,46.02
2019-01-02T04:39:09.193Z,45.66
2019-01-02T04:41:36.169Z,45.34
2019-01-02T04:44:04.570Z,45.30
2019-01-02T04:46:31.547Z,45.68
2019-01-02T04:48:58.436Z,45.28
2019-01-02T04:51:25.423Z,45.52
2019-01-02T04:53:52.762Z,46.27
2019-01-02T04:56:19.778Z,45.57
2019-01-02T04:58:46.699Z,45.79
2019-01-02T05:01:13.925Z,45.01
2019-01-02T05:03:41.126Z,45.14
2019-01-02T05:06:08.043Z,46.27
2019-01-02T05:08:34.998Z,48.91
2019-01-02T05:11:01.942Z,46.68
2019-01-02T05:13:28.822Z,47.62
2019-01-02T05:15:55.701Z,46.39
2019-01-02T05:18:24.188Z,46.54
2019-01-02T05:20:51.186Z,46.11
2019-01-02T05:23:18.206Z,45.14
2019-01-02T05:25:46.806Z,45.24
2019-01-02T05:28:13.762Z,45.13
2019-01-02T05:30:40.759Z,45.02
2019-01-02T05:33:07.665Z,44.57
2019-01-02T05:35:34.912Z,44.29
2019-01-02T05:38:01.828Z,44.21
2019-01-02T05:40:28.767Z,43.92
2019-01-02T05:42:55.660Z,44.87
2019-01-02T05:45:22.805Z,43.75
2019-01-02T05:47:49.955Z,43.74
2019-01-02T05:50:16.911Z,43.74
2019-01-02T05:52:44.070Z,42.80
2019-01-02T05:55:11.012Z,44.00
2019-01-02T05:57:40.514Z,43.38
2019-01-02T06:00:07.411Z,43.18
2019-01-02T06:02:34.307Z,43.46
2019-01-02T06:05:01.269Z,43.36
2019-01-02T06:07:28.146Z,42.83
2019-01-02T06:09:55.081Z,42.52
2019-01-02T06:12:22.032Z,42.36
2019-01-02T06:14:49.238Z,42.70
2019-01-02T06:17:16.547Z,42.48
2019-01-02T06:19:43.477Z,42.47
2019-01-02T06:22:10.413Z,42.22
2019-01-02T06:24:37.789Z,42.86
2019-01-02T06:27:04.978Z,43.62
2019-01-02T06:29:31.876Z,43.54
2019-01-02T06:31:58.842Z,43.52
2019-01-02T06:34:25.730Z,43.45
2019-01-02T06:36:52.721Z,45.71
2019-01-02T06:39:19.649Z,46.70
2019-01-02T06:41:46.518Z,46.34
2019-01-02T06:44:13.437Z,45.61
2019-01-02T06:46:40.324Z,45.59
2019-01-02T06:49:07.591Z,45.15
2019-01-02T06:51:34.465Z,46.19
2019-01-02T06:54:01.630Z,46.04
2019-01-02T06:56:28.501Z,46.84
2019-01-02T06:58:55.437Z,47.00
2019-01-02T07:01:22.373Z,46.98
2019-01-02T07:03:49.589Z,46.11
2019-01-02T07:06:18.149Z,46.66
2019-01-02T07:08:45.330Z,45.77
2019-01-02T07:11:12.279Z,44.36
2019-01-02T07:13:39.530Z,43.53
2019-01-02T07:16:06.457Z,43.58
2019-01-02T07:18:34.449Z,42.55
2019-01-02T07:21:01.382Z,42.75
2019-01-02T07:23:28.378Z,43.33
2019-01-02T07:25:55.696Z,42.80
2019-01-02T07:28:22.659Z,42.24
2019-01-02T07:30:49.870Z,42.09
2019-01-02T07:33:16.833Z,41.75
2019-01-02T07:35:44.061Z,42.11
2019-01-02T07:38:10.951Z,42.85
2019-01-02T07:40:38.273Z,43.54
2019-01-02T07:43:05.619Z,43.57
2019-01-02T07:45:32.513Z,44.11
2019-01-02T07:47:59.747Z,44.34
2019-01-02T07:50:26.982Z,44.15
2019-01-02T07:52:53.950Z,43.11
2019-01-02T07:55:21.207Z,42.61
2019-01-02T07:57:48.321Z,42.79
2019-01-02T08:00:15.597Z,42.34
2019-01-02T08:02:42.538Z,42.29
2019-01-02T08:05:09.887Z,42.04
2019-01-02T08:07:37.117Z,41.37
2019-01-02T08:10:04.006Z,41.80
2019-01-02T08:12:30.874Z,41.62
2019-01-02T08:15:03.044Z,41.59
2019-01-02T08:17:27.268Z,41.55
2019-01-02T08:19:54.169Z,42.18
2019-01-02T08:22:21.147Z,41.75
2019-01-02T08:24:48.121Z,40.92
2019-01-02T08:27:15.564Z,41.04
2019-01-02T08:29:51.651Z,40.98
2019-01-02T08:32:19.084Z,41.18
2019-01-02T08:34:46.561Z,41.32
2019-01-02T08:37:13.785Z,40.31
2019-01-02T08:39:40.650Z,40.60
2019-01-02T08:42:07.887Z,40.30
2019-01-02T08:44:34.987Z,40.32
2019-01-02T08:47:02.278Z,40.26
2019-01-02T08:49:29.160Z,40.03
2019-01-02T08:51:56.036Z,39.14
2019-01-02T08:54:22.914Z,39.30
2019-01-02T08:56:50.099Z,39.37
2019-01-02T08:59:17.055Z,39.22
2019-01-02T09:01:44.474Z,39.13
2019-01-02T09:04:11.350Z,38.94
2019-01-02T09:06:38.328Z,39.61
2019-01-02T09:09:05.317Z,40.25
2019-01-02T09:11:32.267Z,39.45
2019-01-02T09:13:59.720Z,38.96
2019-01-02T09:16:26.609Z,38.89
2019-01-02T09:18:53.478Z,39.29
2019-01-02T09:21:20.898Z,39.78
2019-01-02T09:23:48.421Z,39.66
2019-01-02T09:26:17.442Z,39.16
2019-01-02T09:28:44.314Z,39.47
2019-01-02T09:31:11.713Z,39.79
2019-01-02T09:33:38.606Z,39.50
2019-01-02T09:36:05.524Z,40.31
2019-01-02T09:38:32.483Z,39.93
2019-01-02T09:40:59.418Z,39.45
2019-01-02T09:43:26.765Z,39.71
2019-01-02T09:45:53.761Z,39.71
2019-01-02T09:48:20.745Z,40.35
2019-01-02T09:50:47.636Z,39.70
2019-01-02T09:53:15.190Z,39.90
2019-01-02T09:55:42.133Z,39.54
2019-01-02T09:58:09.008Z,39.98
2019-01-02T10:00:36.664Z,40.17
2019-01-02T10:03:03.612Z,39.75
2019-01-02T10:05:31.007Z,39.86
2019-01-02T10:07:58.026Z,39.78
2019-01-02T10:10:24.925Z,39.69
2019-01-02T10:12:51.824Z,39.86
2019-01-02T10:15:19.804Z,39.07
2019-01-02T10:17:46.789Z,39.39
2019-01-02T10:20:14.006Z,39.40
2019-01-02T10:22:40.885Z,39.56
2019-01-02T10:25:08.429Z,39.45
2019-01-02T10:27:35.454Z,39.24
2019-01-02T10:30:02.559Z,39.74
2019-01-02T10:32:30.478Z,39.48
2019-01-02T10:34:59.926Z,40.78
2019-01-02T10:37:26.877Z,40.27
2019-01-02T10:39:53.907Z,40.16
2019-01-02T10:42:21.089Z,39.98
2019-01-02T10:44:48.291Z,39.77
2019-01-02T10:47:15.239Z,40.17
2019-01-02T10:49:42.135Z,40.97
2019-01-02T10:52:09.124Z,40.38
2019-01-02T10:54:36.095Z,39.61
2019-01-02T10:57:03.053Z,39.61
2019-01-02T10:59:31.243Z,39.43
2019-01-02T11:01:58.123Z,39.49
2019-01-02T11:04:25.127Z,39.56
2019-01-02T11:06:52.369Z,39.54
2019-01-02T11:09:19.268Z,39.59
2019-01-02T11:11:46.203Z,39.33
2019-01-02T11:14:13.165Z,39.03
2019-01-02T11:16:40.077Z,39.57
2019-01-02T11:19:07.040Z,39.76
2019-01-02T11:21:34.313Z,38.54
2019-01-02T11:24:01.285Z,38.97
2019-01-02T11:26:28.213Z,38.61
2019-01-02T11:28:55.479Z,39.15
2019-01-02T11:31:22.405Z,38.94
2019-01-02T11:33:49.346Z,39.20
2019-01-02T11:36:16.637Z,39.90
2019-01-02T11:38:43.597Z,40.09
2019-01-02T11:41:10.865Z,48.68
2019-01-02T11:43:39.192Z,51.45
2019-01-02T11:46:06.352Z,54.16
2019-01-02T11:48:33.298Z,59.70
2019-01-02T11:51:00.527Z,64.08
2019-01-02T11:53:28.608Z,60.10
2019-01-02T11:55:55.577Z,57.92
2019-01-02T11:58:22.901Z,57.76
2019-01-02T12:00:50.153Z,54.54
2019-01-02T12:03:17.378Z,52.56
2019-01-02T12:05:44.385Z,51.30
2019-01-02T12:08:11.617Z,49.39
2019-01-02T12:10:38.866Z,48.37
2019-01-02T12:13:07.057Z,46.82
2019-01-02T12:15:34.339Z,46.79
2019-01-02T12:18:01.688Z,46.62
2019-01-02T12:20:28.962Z,46.83
2019-01-02T12:22:55.936Z,46.50
2019-01-02T12:25:23.349Z,46.09
2019-01-02T12:27:50.582Z,46.50
2019-01-02T12:30:17.451Z,46.53
2019-01-02T12:32:45.620Z,46.82
2019-01-02T12:35:12.764Z,46.81
2019-01-02T12:37:39.681Z,46.54
2019-01-02T12:40:06.666Z,46.02
2019-01-02T12:42:33.915Z,44.87
2019-01-02T12:45:00.850Z,44.96
2019-01-02T12:47:28.168Z,44.26
2019-01-02T12:49:55.147Z,45.01
2019-01-02T12:52:22.090Z,45.84
2019-01-02T12:54:49.216Z,45.91
2019-01-02T12:57:16.471Z,45.50
2019-01-02T12:59:43.495Z,45.04
2019-01-02T13:02:10.498Z,45.34
2019-01-02T13:04:37.396Z,45.23
2019-01-02T13:07:07.439Z,45.46
2019-01-02T13:09:34.616Z,46.00
2019-01-02T13:12:01.861Z,45.82
2019-01-02T13:14:28.856Z,46.19
2019-01-02T13:16:58.130Z,45.89
2019-01-02T13:19:25.410Z,45.54
2019-01-02T13:21:52.636Z,46.05
2019-01-02T13:24:19.539Z,46.43
2019-01-02T13:26:46.512Z,46.84
2019-01-02T13:29:13.493Z,46.68
2019-01-02T13:31:40.621Z,45.68
2019-01-02T13:34:07.519Z,45.79
2019-01-02T13:36:36.104Z,45.39
2019-01-02T13:39:02.990Z,45.70
2019-01-02T13:41:30.998Z,45.62
2019-01-02T13:43:57.867Z,46.46
2019-01-02T13:46:25.524Z,46.47
2019-01-02T13:48:52.743Z,46.24
2019-01-02T13:51:19.773Z,46.38
2019-01-02T13:53:46.672Z,49.37
2019-01-02T13:56:13.846Z,49.14
2019-01-02T13:58:40.775Z,47.90
2019-01-02T14:01:08.008Z,48.79
2019-01-02T14:03:34.983Z,48.39
2019-01-02T14:06:02.234Z,48.27
2019-01-02T14:08:29.189Z,48.32
2019-01-02T14:10:56.124Z,47.57
2019-01-02T14:13:24.069Z,47.81
2019-01-02T14:15:50.968Z,47.96
2019-01-02T14:18:18.222Z,47.63
2019-01-02T14:20:45.431Z,48.21
2019-01-02T14:23:12.355Z,48.65
2019-01-02T14:25:39.571Z,48.70
2019-01-02T14:28:06.494Z,48.73
2019-01-02T14:30:33.665Z,48.54
2019-01-02T14:33:00.650Z,48.89
2019-01-02T14:35:28.891Z,47.99
2019-01-02T14:37:55.778Z,48.12
2019-01-02T14:40:22.944Z,48.54
2019-01-02T14:42:49.902Z,48.53
2019-01-02T14:45:16.868Z,48.24
2019-01-02T14:47:43.757Z,48.25
2019-01-02T14:50:10.755Z,47.94
2019-01-02T14:52:43.140Z,47.92
2019-01-02T14:55:06.326Z,47.75
2019-01-02T14:57:33.311Z,47.91
2019-01-02T15:00:00.567Z,47.97
2019-01-02T15:02:27.439Z,48.13
2019-01-02T15:04:54.312Z,48.11
2019-01-02T15:07:21.728Z,47.67
2019-01-02T15:09:48.714Z,47.27
2019-01-02T15:12:15.765Z,46.93
2019-01-02T15:14:43.711Z,45.61
2019-01-02T15:17:10.591Z,45.27
2019-01-02T15:19:37.948Z,45.04
2019-01-02T15:22:06.571Z,47.18
2019-01-02T15:24:34.224Z,47.59
2019-01-02T15:27:01.628Z,46.52
2019-01-02T15:29:28.608Z,46.02
2019-01-02T15:32:04.342Z,45.15
2019-01-02T15:34:35.086Z,44.97
2019-01-02T15:37:02.740Z,44.48
2019-01-02T15:39:31.395Z,42.93
2019-01-02T15:42:02.227Z,44.24
2019-01-02T15:50:41.164Z,41.60
2019-01-02T15:53:16.417Z,40.52
2019-01-02T15:55:51.627Z,40.84
2019-01-02T15:58:20.120Z,39.03
2019-01-02T16:00:48.059Z,39.03
2019-01-02T16:03:26.773Z,38.65
2019-01-02T16:05:56.242Z,37.91
2019-01-02T16:08:23.471Z,37.65
2019-01-02T16:10:59.652Z,37.88
2019-01-02T16:13:35.571Z,37.98
2019-01-02T16:16:20.213Z,37.40
2019-01-02T16:18:49.281Z,37.30
2019-01-02T16:21:24.124Z,37.35
2019-01-02T16:23:51.205Z,37.10
2019-01-02T16:26:18.317Z,37.46
2019-01-02T16:29:03.707Z,37.50
2019-01-02T16:31:32.346Z,36.79
2019-01-02T16:34:01.193Z,36.34
2019-01-02T16:36:28.273Z,36.16
2019-01-02T16:39:03.148Z,36.43
2019-01-02T16:41:31.797Z,36.31
2019-01-02T16:46:46.890Z,36.69
2019-01-02T16:49:16.619Z,36.66
2019-01-02T16:51:43.618Z,36.39
2019-01-02T16:54:11.035Z,36.49
2019-01-02T16:56:38.053Z,35.46
2019-01-02T16:59:05.383Z,35.08
2019-01-02T17:01:45.877Z,36.47
2019-01-02T17:04:13.466Z,36.04
2019-01-02T17:06:49.759Z,36.34
2019-01-02T17:09:20.279Z,36.80
2019-01-02T17:11:47.262Z,38.22
2019-01-02T17:14:14.499Z,38.79
2019-01-02T17:16:41.938Z,38.33
2019-01-02T17:19:09.821Z,38.53
2019-01-02T17:21:37.179Z,38.81
2019-01-02T17:26:39.031Z,39.44
2019-01-02T17:29:06.593Z,39.83
2019-01-02T17:31:33.996Z,39.93
2019-01-02T17:34:01.084Z,40.33
2019-01-02T17:36:31.112Z,39.57
2019-01-02T17:39:00.120Z,39.36
2019-01-02T17:41:31.190Z,39.66
2019-01-02T17:43:59.532Z,39.99
2019-01-02T17:46:31.020Z,39.79
2019-01-02T17:48:58.481Z,39.84
2019-01-02T17:51:26.289Z,40.48
2019-01-02T17:53:53.754Z,40.15
2019-01-02T17:56:27.061Z,40.23
2019-01-02T17:58:53.628Z,40.18
2019-01-02T18:01:23.236Z,40.58
2019-01-02T18:06:44.274Z,40.49
2019-01-02T18:09:13.373Z,40.77
2019-01-02T18:11:41.273Z,40.28
2019-01-02T18:14:20.594Z,40.56
2019-01-02T18:16:59.955Z,40.25
2019-01-02T18:19:39.251Z,39.27
2019-01-02T18:22:34.759Z,39.48
2019-01-02T18:34:03.233Z,40.51
2019-01-02T18:36:39.349Z,40.02
2019-01-02T18:39:06.347Z,40.03
2019-01-02T18:41:34.870Z,43.40
2019-01-02T18:44:06.396Z,43.31
2019-01-02T18:46:33.740Z,43.47
2019-01-02T18:49:05.621Z,42.09
2019-01-02T18:51:34.243Z,44.12
2019-01-02T18:54:01.344Z,42.22
2019-01-02T18:56:30.125Z,40.29
2019-01-02T18:59:00.519Z,40.90
2019-01-02T19:01:34.204Z,41.75
2019-01-02T19:04:01.566Z,42.33
2019-01-02T19:06:28.714Z,40.42
2019-01-02T19:08:58.546Z,41.25
2019-01-02T19:11:26.724Z,39.18
2019-01-02T19:13:55.570Z,37.55
2019-01-02T19:16:32.754Z,38.32
2019-01-02T19:19:01.374Z,38.16
2019-01-02T19:21:28.608Z,44.63
2019-01-02T19:23:55.598Z,42.58
2019-01-02T19:26:25.155Z,43.35
2019-01-02T19:28:54.675Z,42.04
2019-01-02T19:31:21.847Z,37.49
2019-01-02T19:33:49.658Z,36.43
2019-01-02T19:36:17.140Z,36.29
2019-01-02T19:38:44.526Z,35.87
2019-01-02T19:41:11.426Z,35.96
2019-01-02T19:43:44.744Z,35.87
2019-01-02T19:46:12.308Z,35.36
2019-01-02T19:48:39.711Z,35.36
2019-01-02T19:51:07.088Z,35.84
2019-01-02T19:53:34.203Z,34.43
2019-01-02T19:56:01.179Z,33.81
2019-01-02T19:58:28.607Z,34.25
2019-01-02T20:00:55.536Z,33.73
2019-01-02T20:03:28.301Z,34.02
2019-01-02T20:05:54.331Z,34.39
2019-01-02T20:08:28.726Z,34.56
2019-01-02T20:10:56.033Z,34.00
2019-01-02T20:13:23.393Z,34.70
2019-01-02T20:15:50.346Z,34.00
2019-01-02T20:18:18.225Z,33.94
2019-01-02T20:20:46.406Z,32.90
2019-01-02T20:23:14.163Z,33.58
2019-01-02T20:25:50.268Z,33.04
2019-01-02T20:28:18.656Z,33.19
2019-01-02T20:30:46.127Z,32.94
2019-01-02T20:33:13.135Z,33.11
2019-01-02T20:35:42.892Z,33.09
2019-01-02T20:38:09.871Z,32.82
2019-01-02T20:40:38.228Z,32.94
2019-01-02T20:43:05.475Z,32.77
2019-01-02T20:45:37.560Z,32.42
2019-01-02T20:48:04.568Z,32.84
2019-01-02T20:50:33.127Z,32.03
2019-01-02T20:53:00.665Z,32.25
2019-01-02T20:55:27.594Z,32.22
2019-01-02T20:58:04.551Z,31.92
2019-01-02T21:00:31.719Z,32.07
2019-01-02T21:02:58.713Z,32.00
2019-01-02T21:05:27.617Z,31.53
2019-01-02T21:07:55.932Z,31.94
2019-01-02T21:10:22.929Z,31.75
2019-01-02T21:12:50.040Z,32.06
2019-01-02T21:15:19.987Z,32.16
2019-01-02T21:17:47.317Z,32.11
2019-01-02T21:20:14.605Z,32.10
2019-01-02T21:22:41.631Z,32.02
2019-01-02T21:25:10.959Z,31.53
2019-01-02T21:27:38.206Z,31.44
2019-01-02T21:30:05.331Z,31.87
2019-01-02T21:32:34.358Z,32.10
2019-01-02T21:35:01.375Z,31.97
2019-01-02T21:37:28.301Z,31.86
2019-01-02T21:39:55.445Z,32.24
2019-01-02T21:42:22.656Z,32.61
2019-01-02T21:44:49.992Z,32.37
2019-01-02T21:47:16.998Z,31.67
2019-01-02T21:49:43.881Z,32.22
2019-01-02T21:52:11.089Z,32.53
2019-01-02T21:54:38.035Z,32.22
2019-01-02T21:57:04.953Z,32.08
2019-01-02T21:59:31.929Z,32.65
2019-01-02T22:04:50.512Z,32.96
2019-01-02T22:07:17.455Z,32.90
2019-01-02T22:09:47.048Z,33.05
2019-01-02T22:12:14.011Z,32.30
2019-01-02T22:14:41.017Z,32.71
2019-01-02T22:17:08.307Z,32.80
2019-01-02T22:19:35.262Z,32.93
2019-01-02T22:22:02.258Z,33.51
2019-01-02T22:24:29.432Z,33.34
2019-01-02T22:26:56.590Z,33.36
2019-01-02T22:29:23.560Z,33.41
2019-01-02T22:31:50.534Z,32.96
2019-01-02T22:34:17.545Z,33.58
2019-01-02T22:36:44.460Z,33.30
2019-01-02T22:39:11.626Z,33.36
2019-01-02T22:41:38.523Z,33.11
2019-01-02T22:44:05.769Z,33.81
2019-01-02T22:46:32.973Z,33.93
2019-01-02T22:49:00.319Z,33.99
2019-01-02T22:51:27.290Z,34.21
2019-01-02T22:53:54.273Z,34.49
2019-01-02T22:56:22.830Z,33.92
2019-01-02T22:58:49.814Z,34.56
2019-01-02T23:01:16.933Z,34.75
2019-01-02T23:03:44.037Z,34.86
2019-01-02T23:06:11.056Z,34.60
2019-01-02T23:08:38.229Z,34.69
2019-01-02T23:11:05.522Z,34.33
2019-01-02T23:13:32.699Z,34.27
2019-01-02T23:15:59.921Z,34.49
2019-01-02T23:18:26.853Z,34.84
2019-01-02T23:20:53.802Z,34.42
2019-01-02T23:23:20.691Z,35.11
2019-01-02T23:25:47.844Z,34.46
2019-01-02T23:28:15.081Z,35.02
2019-01-02T23:30:41.976Z,35.06
2019-01-02T23:33:08.938Z,35.11
2019-01-02T23:35:35.954Z,35.18
2019-01-02T23:38:03.154Z,35.28
2019-01-02T23:40:30.057Z,35.37
2019-01-02T23:42:56.928Z,35.14
2019-01-02T23:45:23.852Z,35.46
2019-01-02T23:47:50.799Z,35.43
2019-01-02T23:50:17.737Z,35.17
2019-01-02T23:52:44.939Z,35.58
2019-01-02T23:55:11.876Z,35.85
2019-01-02T23:57:38.780Z,35.86
